sensor_id;sensor_type;location;lat;lon;timestamp;pressure;altitude;pressure_sealevel;temperature;humidity
22653;BME280;11493;43.344;26.226;2023-07-02T00:00:11;98463.00;;;21.76;96.82
22653;BME280;11493;43.344;26.226;2023-07-02T00:02:38;98463.47;;;21.63;98.13
22653;BME280;11493;43.344;26.226;2023-07-02T00:05:06;98460.28;;;21.61;99.64
22653;BME280;11493;43.344;26.226;2023-07-02T00:07:34;98463.44;;;21.67;100.00
22653;BME280;11493;43.344;26.226;2023-07-02T00:10:04;98465.03;;;21.68;99.84
22653;BME280;11493;43.344;26.226;2023-07-02T00:12:31;98461.44;;;21.68;100.00
22653;BME280;11493;43.344;26.226;2023-07-02T00:14:58;98442.25;;;21.70;99.60
22653;BME280;11493;43.344;26.226;2023-07-02T00:17:25;98440.66;;;21.69;100.00
22653;BME280;11493;43.344;26.226;2023-07-02T00:19:52;98437.53;;;21.56;100.00
22653;BME280;11493;43.344;26.226;2023-07-02T00:22:20;98437.59;;;21.52;100.00
22653;BME280;11493;43.344;26.226;2023-07-02T00:24:47;98431.59;;;21.50;100.00
22653;BME280;11493;43.344;26.226;2023-07-02T00:27:14;98438.81;;;21.44;100.00
22653;BME280;11493;43.344;26.226;2023-07-02T00:29:42;98444.00;;;21.49;100.00
22653;BME280;11493;43.344;26.226;2023-07-02T00:32:09;98428.84;;;21.43;100.00
22653;BME280;11493;43.344;26.226;2023-07-02T00:34:36;98436.81;;;21.48;100.00
22653;BME280;11493;43.344;26.226;2023-07-02T00:37:03;98428.78;;;21.50;100.00
22653;BME280;11493;43.344;26.226;2023-07-02T00:39:30;98425.63;;;21.45;100.00
22653;BME280;11493;43.344;26.226;2023-07-02T00:42:03;98420.44;;;21.43;100.00
22653;BME280;11493;43.344;26.226;2023-07-02T00:44:31;98427.53;;;21.55;100.00
22653;BME280;11493;43.344;26.226;2023-07-02T00:46:58;98431.91;;;21.59;100.00
22653;BME280;11493;43.344;26.226;2023-07-02T00:49:26;98429.09;;;21.59;100.00
22653;BME280;11493;43.344;26.226;2023-07-02T00:51:54;98420.81;;;21.49;100.00
22653;BME280;11493;43.344;26.226;2023-07-02T00:54:21;98427.19;;;21.49;100.00
22653;BME280;11493;43.344;26.226;2023-07-02T00:56:48;98427.59;;;21.51;100.00
22653;BME280;11493;43.344;26.226;2023-07-02T00:59:15;98419.19;;;21.51;100.00
22653;BME280;11493;43.344;26.226;2023-07-02T01:01:42;98429.09;;;21.59;100.00
22653;BME280;11493;43.344;26.226;2023-07-02T01:04:10;98419.13;;;21.58;100.00
22653;BME280;11493;43.344;26.226;2023-07-02T01:06:39;98415.53;;;21.54;100.00
22653;BME280;11493;43.344;26.226;2023-07-02T01:09:10;98416.81;;;21.50;100.00
22653;BME280;11493;43.344;26.226;2023-07-02T01:11:43;98420.00;;;21.48;100.00
22653;BME280;11493;43.344;26.226;2023-07-02T01:14:15;98415.22;;;21.49;97.71
22653;BME280;11493;43.344;26.226;2023-07-02T01:16:44;98416.00;;;21.49;95.87
22653;BME280;11493;43.344;26.226;2023-07-02T01:19:55;98420.88;;;21.38;98.04
22653;BME280;11493;43.344;26.226;2023-07-02T01:22:20;98424.53;;;21.28;99.25
22653;BME280;11493;43.344;26.226;2023-07-02T01:24:47;98422.53;;;21.25;98.57
22653;BME280;11493;43.344;26.226;2023-07-02T01:27:15;98427.34;;;21.24;98.76
22653;BME280;11493;43.344;26.226;2023-07-02T01:29:43;98422.16;;;21.16;99.60
22653;BME280;11493;43.344;26.226;2023-07-02T01:32:14;98415.78;;;21.12;99.35
22653;BME280;11493;43.344;26.226;2023-07-02T01:34:41;98427.41;;;21.07;99.87
22653;BME280;11493;43.344;26.226;2023-07-02T01:37:10;98436.56;;;21.11;98.23
22653;BME280;11493;43.344;26.226;2023-07-02T01:39:38;98423.00;;;21.06;96.42
22653;BME280;11493;43.344;26.226;2023-07-02T01:42:14;98430.59;;;21.09;94.85
22653;BME280;11493;43.344;26.226;2023-07-02T01:44:46;98425.78;;;21.13;93.28
22653;BME280;11493;43.344;26.226;2023-07-02T01:47:16;98422.16;;;21.19;92.22
22653;BME280;11493;43.344;26.226;2023-07-02T01:49:43;98409.78;;;21.17;90.99
22653;BME280;11493;43.344;26.226;2023-07-02T01:52:10;98422.53;;;21.25;90.70
22653;BME280;11493;43.344;26.226;2023-07-02T01:54:38;98426.53;;;21.27;89.63
22653;BME280;11493;43.344;26.226;2023-07-02T01:57:05;98421.34;;;21.19;91.93
22653;BME280;11493;43.344;26.226;2023-07-02T01:59:32;98416.59;;;21.09;92.56
22653;BME280;11493;43.344;26.226;2023-07-02T02:01:59;98422.63;;;21.04;94.27
22653;BME280;11493;43.344;26.226;2023-07-02T02:04:26;98421.03;;;21.03;95.06
22653;BME280;11493;43.344;26.226;2023-07-02T02:06:54;98411.88;;;20.95;94.51
22653;BME280;11493;43.344;26.226;2023-07-02T02:09:20;98428.63;;;20.98;94.26
22653;BME280;11493;43.344;26.226;2023-07-02T02:11:49;98419.03;;;20.99;94.41
22653;BME280;11493;43.344;26.226;2023-07-02T02:14:16;98406.63;;;21.04;94.61
22653;BME280;11493;43.344;26.226;2023-07-02T02:16:44;98416.25;;;20.99;95.42
22653;BME280;11493;43.344;26.226;2023-07-02T02:19:14;98408.28;;;20.94;95.58
22653;BME280;11493;43.344;26.226;2023-07-02T02:21:43;98413.84;;;20.98;95.43
22653;BME280;11493;43.344;26.226;2023-07-02T02:24:10;98409.06;;;20.98;96.18
22653;BME280;11493;43.344;26.226;2023-07-02T02:26:37;98413.06;;;20.97;96.88
22653;BME280;11493;43.344;26.226;2023-07-02T02:29:04;98410.69;;;20.92;96.82
22653;BME280;11493;43.344;26.226;2023-07-02T02:31:32;98420.66;;;20.93;97.55
22653;BME280;11493;43.344;26.226;2023-07-02T02:34:00;98410.69;;;20.89;97.60
22653;BME280;11493;43.344;26.226;2023-07-02T02:36:28;98410.31;;;20.87;98.19
22653;BME280;11493;43.344;26.226;2023-07-02T02:38:55;98418.72;;;20.83;98.50
22653;BME280;11493;43.344;26.226;2023-07-02T02:41:24;98409.13;;;20.84;98.72
22653;BME280;11493;43.344;26.226;2023-07-02T02:43:52;98410.72;;;20.85;97.97
22653;BME280;11493;43.344;26.226;2023-07-02T02:46:21;98416.28;;;20.85;98.12
22653;BME280;11493;43.344;26.226;2023-07-02T02:48:49;98420.34;;;20.77;98.46
22653;BME280;11493;43.344;26.226;2023-07-02T02:51:16;98421.97;;;20.71;99.01
22653;BME280;11493;43.344;26.226;2023-07-02T02:53:43;98424.38;;;20.69;99.81
22653;BME280;11493;43.344;26.226;2023-07-02T02:56:11;98415.19;;;20.65;100.00
22653;BME280;11493;43.344;26.226;2023-07-02T02:58:39;98419.19;;;20.67;99.41
22653;BME280;11493;43.344;26.226;2023-07-02T03:01:07;98435.16;;;20.67;99.70
22653;BME280;11493;43.344;26.226;2023-07-02T03:03:38;98441.59;;;20.46;100.00
22653;BME280;11493;43.344;26.226;2023-07-02T03:06:06;98426.03;;;20.45;100.00
22653;BME280;11493;43.344;26.226;2023-07-02T03:08:33;98438.78;;;20.50;100.00
22653;BME280;11493;43.344;26.226;2023-07-02T03:11:00;98434.78;;;20.54;100.00
22653;BME280;11493;43.344;26.226;2023-07-02T03:13:27;98434.00;;;20.54;100.00
22653;BME280;11493;43.344;26.226;2023-07-02T03:15:54;98426.81;;;20.46;100.00
22653;BME280;11493;43.344;26.226;2023-07-02T03:18:21;98426.03;;;20.49;100.00
22653;BME280;11493;43.344;26.226;2023-07-02T03:20:49;98422.84;;;20.47;100.00
22653;BME280;11493;43.344;26.226;2023-07-02T03:23:16;98434.00;;;20.54;100.00
22653;BME280;11493;43.344;26.226;2023-07-02T03:25:43;98428.41;;;20.54;100.00
22653;BME280;11493;43.344;26.226;2023-07-02T03:28:10;98432.00;;;20.58;100.00
22653;BME280;11493;43.344;26.226;2023-07-02T03:30:37;98421.22;;;20.53;100.00
22653;BME280;11493;43.344;26.226;2023-07-02T03:33:05;98433.59;;;20.59;100.00
22653;BME280;11493;43.344;26.226;2023-07-02T03:35:32;98422.00;;;20.64;100.00
22653;BME280;11493;43.344;26.226;2023-07-02T03:37:59;98423.59;;;20.65;99.74
22653;BME280;11493;43.344;26.226;2023-07-02T03:40:26;98420.38;;;20.70;98.72
22653;BME280;11493;43.344;26.226;2023-07-02T03:42:53;98421.19;;;20.63;99.03
22653;BME280;11493;43.344;26.226;2023-07-02T03:45:20;98413.22;;;20.55;100.00
22653;BME280;11493;43.344;26.226;2023-07-02T03:47:48;98426.41;;;20.58;100.00
22653;BME280;11493;43.344;26.226;2023-07-02T03:50:15;98432.00;;;20.51;100.00
22653;BME280;11493;43.344;26.226;2023-07-02T03:52:42;98437.59;;;20.47;100.00
22653;BME280;11493;43.344;26.226;2023-07-02T03:55:09;98438.00;;;20.42;100.00
22653;BME280;11493;43.344;26.226;2023-07-02T03:57:36;98443.19;;;20.47;100.00
22653;BME280;11493;43.344;26.226;2023-07-02T04:00:03;98449.19;;;20.42;100.00
22653;BME280;11493;43.344;26.226;2023-07-02T04:02:40;98455.94;;;20.38;100.00
22653;BME280;11493;43.344;26.226;2023-07-02T04:05:08;98439.59;;;20.29;100.00
22653;BME280;11493;43.344;26.226;2023-07-02T04:07:35;98442.38;;;20.32;100.00
22653;BME280;11493;43.344;26.226;2023-07-02T04:10:02;98449.56;;;20.33;100.00
22653;BME280;11493;43.344;26.226;2023-07-02T04:12:30;98453.94;;;20.34;100.00
22653;BME280;11493;43.344;26.226;2023-07-02T04:14:57;98438.41;;;20.30;100.00
22653;BME280;11493;43.344;26.226;2023-07-02T04:17:25;98451.16;;;20.34;100.00
22653;BME280;11493;43.344;26.226;2023-07-02T04:19:54;98451.16;;;20.31;100.00
22653;BME280;11493;43.344;26.226;2023-07-02T04:22:21;98445.56;;;20.27;100.00
22653;BME280;11493;43.344;26.226;2023-07-02T04:24:48;98438.00;;;20.31;100.00
22653;BME280;11493;43.344;26.226;2023-07-02T04:27:20;98445.97;;;20.33;100.00
22653;BME280;11493;43.344;26.226;2023-07-02T04:30:07;98446.00;;;20.40;100.00
22653;BME280;11493;43.344;26.226;2023-07-02T04:32:38;98449.97;;;20.50;100.00
22653;BME280;11493;43.344;26.226;2023-07-02T04:35:06;98457.94;;;20.51;100.00
22653;BME280;11493;43.344;26.226;2023-07-02T04:37:35;98463.50;;;20.65;100.00
22653;BME280;11493;43.344;26.226;2023-07-02T04:40:02;98457.91;;;20.73;99.22
22653;BME280;11493;43.344;26.226;2023-07-02T04:42:47;98475.00;;;20.85;97.74
22653;BME280;11493;43.344;26.226;2023-07-02T04:45:15;98472.59;;;20.91;97.33
22653;BME280;11493;43.344;26.226;2023-07-02T04:47:44;98470.16;;;21.04;96.06
22653;BME280;11493;43.344;26.226;2023-07-02T04:50:12;98480.88;;;21.19;96.10
22653;BME280;11493;43.344;26.226;2023-07-02T04:52:39;98463.28;;;21.29;94.91
22653;BME280;11493;43.344;26.226;2023-07-02T04:55:06;98465.59;;;21.45;94.13
22653;BME280;11493;43.344;26.226;2023-07-02T04:57:34;98475.19;;;21.48;93.36
22653;BME280;11493;43.344;26.226;2023-07-02T05:00:01;98482.69;;;21.58;91.08
22653;BME280;11493;43.344;26.226;2023-07-02T05:02:30;98483.03;;;21.71;90.78
22653;BME280;11493;43.344;26.226;2023-07-02T05:04:58;98479.00;;;21.75;90.89
22653;BME280;11493;43.344;26.226;2023-07-02T05:07:25;98477.34;;;21.85;89.61
22653;BME280;11493;43.344;26.226;2023-07-02T05:09:52;98475.66;;;21.94;88.81
22653;BME280;11493;43.344;26.226;2023-07-02T05:12:21;98488.38;;;22.10;87.87
22653;BME280;11493;43.344;26.226;2023-07-02T05:14:48;98480.72;;;22.17;87.46
22653;BME280;11493;43.344;26.226;2023-07-02T05:17:15;98487.47;;;22.23;88.74
22653;BME280;11493;43.344;26.226;2023-07-02T05:19:42;98480.97;;;22.34;88.94
22653;BME280;11493;43.344;26.226;2023-07-02T05:22:09;98476.09;;;22.41;88.80
22653;BME280;11493;43.344;26.226;2023-07-02T05:24:37;98483.22;;;22.49;88.12
22653;BME280;11493;43.344;26.226;2023-07-02T05:27:04;98476.81;;;22.49;87.85
22653;BME280;11493;43.344;26.226;2023-07-02T05:29:31;98485.09;;;22.63;87.36
22653;BME280;11493;43.344;26.226;2023-07-02T05:31:59;98475.09;;;22.62;86.46
22653;BME280;11493;43.344;26.226;2023-07-02T05:34:26;98473.81;;;22.70;86.78
22653;BME280;11493;43.344;26.226;2023-07-02T05:36:53;98483.72;;;22.78;86.94
22653;BME280;11493;43.344;26.226;2023-07-02T05:39:20;98495.66;;;22.89;86.72
22653;BME280;11493;43.344;26.226;2023-07-02T05:41:48;98494.84;;;22.92;86.36
22653;BME280;11493;43.344;26.226;2023-07-02T05:44:16;98502.38;;;22.99;86.54
22653;BME280;11493;43.344;26.226;2023-07-02T05:46:44;98496.19;;;23.11;86.09
22653;BME280;11493;43.344;26.226;2023-07-02T05:49:13;98489.31;;;23.16;85.46
22653;BME280;11493;43.344;26.226;2023-07-02T05:51:39;98504.47;;;23.22;84.15
22653;BME280;11493;43.344;26.226;2023-07-02T05:54:07;98511.19;;;23.32;82.90
22653;BME280;11493;43.344;26.226;2023-07-02T05:56:34;98507.06;;;23.40;81.98
22653;BME280;11493;43.344;26.226;2023-07-02T05:59:02;98494.84;;;23.57;81.40
22653;BME280;11493;43.344;26.226;2023-07-02T06:01:29;98481.44;;;23.68;80.79
22653;BME280;11493;43.344;26.226;2023-07-02T06:03:57;98486.78;;;23.86;79.21
22653;BME280;11493;43.344;26.226;2023-07-02T06:06:25;98470.25;;;23.91;78.20
22653;BME280;11493;43.344;26.226;2023-07-02T06:08:52;98478.28;;;24.16;78.26
22653;BME280;11493;43.344;26.226;2023-07-02T06:11:19;98477.44;;;24.19;76.96
22653;BME280;11493;43.344;26.226;2023-07-02T06:13:47;98490.06;;;24.35;76.93
22653;BME280;11493;43.344;26.226;2023-07-02T06:16:16;98492.88;;;24.35;77.13
22653;BME280;11493;43.344;26.226;2023-07-02T06:18:43;98485.53;;;24.41;77.40
22653;BME280;11493;43.344;26.226;2023-07-02T06:21:10;98463.50;;;24.59;77.39
22653;BME280;11493;43.344;26.226;2023-07-02T06:23:43;98481.56;;;24.81;76.54
22653;BME280;11493;43.344;26.226;2023-07-02T06:26:11;98477.63;;;24.99;72.25
22653;BME280;11493;43.344;26.226;2023-07-02T06:28:38;98476.28;;;25.07;74.75
22653;BME280;11493;43.344;26.226;2023-07-02T06:31:06;98465.94;;;25.20;73.42
22653;BME280;11493;43.344;26.226;2023-07-02T06:33:33;98473.28;;;25.34;72.95
22653;BME280;11493;43.344;26.226;2023-07-02T06:36:01;98477.09;;;25.43;72.67
22653;BME280;11493;43.344;26.226;2023-07-02T06:38:28;98469.41;;;25.64;71.42
22653;BME280;11493;43.344;26.226;2023-07-02T06:40:55;98467.38;;;25.84;70.45
22653;BME280;11493;43.344;26.226;2023-07-02T06:43:22;98468.69;;;25.96;71.41
22653;BME280;11493;43.344;26.226;2023-07-02T06:45:50;98476.19;;;26.18;70.27
22653;BME280;11493;43.344;26.226;2023-07-02T06:48:17;98480.22;;;26.17;73.09
22653;BME280;11493;43.344;26.226;2023-07-02T06:50:58;98481.00;;;26.02;72.14
22653;BME280;11493;43.344;26.226;2023-07-02T06:53:31;98489.75;;;25.91;72.63
22653;BME280;11493;43.344;26.226;2023-07-02T06:56:12;98486.75;;;25.82;73.00
22653;BME280;11493;43.344;26.226;2023-07-02T06:58:50;98493.84;;;25.70;73.99
22653;BME280;11493;43.344;26.226;2023-07-02T07:01:17;98487.34;;;25.73;74.02
22653;BME280;11493;43.344;26.226;2023-07-02T07:03:44;98489.13;;;25.83;75.21
22653;BME280;11493;43.344;26.226;2023-07-02T07:06:11;98492.56;;;25.91;74.58
22653;BME280;11493;43.344;26.226;2023-07-02T07:08:39;98487.34;;;26.06;72.87
22653;BME280;11493;43.344;26.226;2023-07-02T07:11:06;98494.69;;;26.19;72.08
22653;BME280;11493;43.344;26.226;2023-07-02T07:13:33;98490.66;;;26.37;73.12
22653;BME280;11493;43.344;26.226;2023-07-02T07:16:00;98493.56;;;26.49;70.33
22653;BME280;11493;43.344;26.226;2023-07-02T07:18:28;98499.09;;;26.69;70.62
22653;BME280;11493;43.344;26.226;2023-07-02T07:20:58;98498.09;;;26.76;67.86
22653;BME280;11493;43.344;26.226;2023-07-02T07:23:25;98499.13;;;26.82;65.89
22653;BME280;11493;43.344;26.226;2023-07-02T07:25:52;98485.59;;;27.06;66.72
22653;BME280;11493;43.344;26.226;2023-07-02T07:28:20;98497.00;;;27.31;67.35
22653;BME280;11493;43.344;26.226;2023-07-02T07:30:47;98494.41;;;27.49;65.91
22653;BME280;11493;43.344;26.226;2023-07-02T07:33:15;98485.19;;;27.62;65.51
22653;BME280;11493;43.344;26.226;2023-07-02T07:35:42;98493.09;;;27.67;65.15
22653;BME280;11493;43.344;26.226;2023-07-02T07:38:09;98486.34;;;27.77;65.99
22653;BME280;11493;43.344;26.226;2023-07-02T07:40:36;98488.38;;;27.89;66.09
22653;BME280;11493;43.344;26.226;2023-07-02T07:43:03;98484.75;;;28.01;64.44
22653;BME280;11493;43.344;26.226;2023-07-02T07:45:33;98478.88;;;28.08;64.29
22653;BME280;11493;43.344;26.226;2023-07-02T07:48:01;98484.06;;;28.23;63.99
22653;BME280;11493;43.344;26.226;2023-07-02T07:50:30;98482.84;;;28.24;66.00
22653;BME280;11493;43.344;26.226;2023-07-02T07:52:58;98487.00;;;28.32;65.91
22653;BME280;11493;43.344;26.226;2023-07-02T07:55:25;98488.25;;;28.43;67.91
22653;BME280;11493;43.344;26.226;2023-07-02T07:57:53;98489.63;;;28.26;65.67
22653;BME280;11493;43.344;26.226;2023-07-02T08:00:20;98487.00;;;28.32;67.61
22653;BME280;11493;43.344;26.226;2023-07-02T08:02:47;98492.56;;;28.35;69.12
22653;BME280;11493;43.344;26.226;2023-07-02T08:05:16;98495.16;;;28.30;68.65
22653;BME280;11493;43.344;26.226;2023-07-02T08:07:43;98496.06;;;28.27;70.37
22653;BME280;11493;43.344;26.226;2023-07-02T08:10:10;98498.69;;;28.21;70.58
22653;BME280;11493;43.344;26.226;2023-07-02T08:12:38;98507.06;;;28.12;70.65
22653;BME280;11493;43.344;26.226;2023-07-02T08:15:06;98503.88;;;28.10;70.42
22653;BME280;11493;43.344;26.226;2023-07-02T08:17:33;98508.75;;;28.09;71.80
22653;BME280;11493;43.344;26.226;2023-07-02T08:20:01;98502.97;;;28.13;72.53
22653;BME280;11493;43.344;26.226;2023-07-02T08:22:28;98502.31;;;28.22;70.98
22653;BME280;11493;43.344;26.226;2023-07-02T08:24:55;98493.84;;;28.22;71.25
22653;BME280;11493;43.344;26.226;2023-07-02T08:27:23;98513.84;;;28.27;70.73
22653;BME280;11493;43.344;26.226;2023-07-02T08:29:50;98514.50;;;28.31;69.47
22653;BME280;11493;43.344;26.226;2023-07-02T08:32:17;98502.88;;;28.17;69.51
22653;BME280;11493;43.344;26.226;2023-07-02T08:34:44;98514.84;;;28.21;70.30
22653;BME280;11493;43.344;26.226;2023-07-02T08:37:12;98509.97;;;28.34;69.21
22653;BME280;11493;43.344;26.226;2023-07-02T08:39:39;98510.63;;;28.51;69.90
22653;BME280;11493;43.344;26.226;2023-07-02T08:42:07;98514.13;;;28.55;70.41
22653;BME280;11493;43.344;26.226;2023-07-02T08:44:35;98511.44;;;28.51;70.02
22653;BME280;11493;43.344;26.226;2023-07-02T08:47:05;98517.31;;;28.57;70.14
22653;BME280;11493;43.344;26.226;2023-07-02T08:49:33;98527.50;;;28.54;71.82
22653;BME280;11493;43.344;26.226;2023-07-02T08:52:00;98520.97;;;28.32;71.22
22653;BME280;11493;43.344;26.226;2023-07-02T08:54:27;98520.97;;;28.06;71.92
22653;BME280;11493;43.344;26.226;2023-07-02T08:56:54;98515.41;;;28.03;72.33
22653;BME280;11493;43.344;26.226;2023-07-02T08:59:22;98523.09;;;27.90;74.31
22653;BME280;11493;43.344;26.226;2023-07-02T09:01:51;98520.94;;;27.81;76.43
22653;BME280;11493;43.344;26.226;2023-07-02T09:04:24;98528.25;;;27.66;76.02
22653;BME280;11493;43.344;26.226;2023-07-02T09:07:09;98522.66;;;27.49;75.99
22653;BME280;11493;43.344;26.226;2023-07-02T09:09:48;98536.78;;;27.37;76.59
22653;BME280;11493;43.344;26.226;2023-07-02T09:14:56;98519.94;;;27.04;78.49
22653;BME280;11493;43.344;26.226;2023-07-02T09:17:29;98522.56;;;26.95;79.50
22653;BME280;11493;43.344;26.226;2023-07-02T09:19:57;98514.72;;;26.87;80.65
22653;BME280;11493;43.344;26.226;2023-07-02T09:22:27;98506.69;;;26.72;81.99
22653;BME280;11493;43.344;26.226;2023-07-02T09:24:56;98504.84;;;26.66;81.61
22653;BME280;11493;43.344;26.226;2023-07-02T09:27:40;98498.59;;;26.58;82.49
22653;BME280;11493;43.344;26.226;2023-07-02T09:32:35;98498.25;;;26.40;85.37
22653;BME280;11493;43.344;26.226;2023-07-02T09:35:03;98505.66;;;26.34;84.41
22653;BME280;11493;43.344;26.226;2023-07-02T09:37:32;98501.50;;;26.38;83.34
22653;BME280;11493;43.344;26.226;2023-07-02T09:40:00;98510.31;;;26.40;83.73
22653;BME280;11493;43.344;26.226;2023-07-02T09:42:28;98504.69;;;26.40;85.03
22653;BME280;11493;43.344;26.226;2023-07-02T09:45:03;98507.06;;;26.42;85.23
22653;BME280;11493;43.344;26.226;2023-07-02T09:47:47;98512.88;;;26.35;84.70
22653;BME280;11493;43.344;26.226;2023-07-02T09:50:17;98509.63;;;26.36;85.31
22653;BME280;11493;43.344;26.226;2023-07-02T09:52:46;98510.06;;;26.35;85.64
22653;BME280;11493;43.344;26.226;2023-07-02T09:55:15;98517.19;;;26.39;86.59
22653;BME280;11493;43.344;26.226;2023-07-02T09:57:43;98519.13;;;26.42;87.51
22653;BME280;11493;43.344;26.226;2023-07-02T10:00:12;98519.22;;;26.39;86.00
22653;BME280;11493;43.344;26.226;2023-07-02T10:02:39;98521.06;;;26.45;87.44
22653;BME280;11493;43.344;26.226;2023-07-02T10:05:06;98522.22;;;26.48;85.72
22653;BME280;11493;43.344;26.226;2023-07-02T10:07:34;98531.03;;;26.50;86.29
22653;BME280;11493;43.344;26.226;2023-07-02T10:10:02;98532.19;;;26.52;86.64
22653;BME280;11493;43.344;26.226;2023-07-02T10:12:29;98541.00;;;26.38;87.83
22653;BME280;11493;43.344;26.226;2023-07-02T10:14:59;98545.13;;;26.34;88.35
22653;BME280;11493;43.344;26.226;2023-07-02T10:17:35;98544.47;;;26.26;88.87
22653;BME280;11493;43.344;26.226;2023-07-02T10:20:06;98534.50;;;26.22;88.89
22653;BME280;11493;43.344;26.226;2023-07-02T10:22:43;98526.94;;;26.18;88.43
22653;BME280;11493;43.344;26.226;2023-07-02T10:25:11;98528.44;;;26.23;88.52
22653;BME280;11493;43.344;26.226;2023-07-02T10:27:42;98529.78;;;26.35;88.38
22653;BME280;11493;43.344;26.226;2023-07-02T10:30:10;98528.75;;;26.45;87.85
22653;BME280;11493;43.344;26.226;2023-07-02T10:32:37;98538.59;;;26.53;88.37
22653;BME280;11493;43.344;26.226;2023-07-02T10:35:15;98527.16;;;26.44;87.98
22653;BME280;11493;43.344;26.226;2023-07-02T10:37:43;98532.09;;;26.56;87.74
22653;BME280;11493;43.344;26.226;2023-07-02T10:40:11;98528.91;;;26.70;89.09
22653;BME280;11493;43.344;26.226;2023-07-02T10:42:50;98529.28;;;26.85;85.51
22653;BME280;11493;43.344;26.226;2023-07-02T10:45:18;98527.03;;;27.25;82.89
22653;BME280;11493;43.344;26.226;2023-07-02T10:47:46;98529.69;;;27.58;84.13
22653;BME280;11493;43.344;26.226;2023-07-02T10:50:18;98529.97;;;27.76;80.38
22653;BME280;11493;43.344;26.226;2023-07-02T10:52:46;98522.41;;;27.86;80.42
22653;BME280;11493;43.344;26.226;2023-07-02T10:55:21;98520.94;;;27.81;82.00
22653;BME280;11493;43.344;26.226;2023-07-02T10:57:50;98515.72;;;27.67;81.18
22653;BME280;11493;43.344;26.226;2023-07-02T11:00:18;98495.66;;;27.36;80.36
22653;BME280;11493;43.344;26.226;2023-07-02T11:02:46;98510.31;;;27.31;81.06
22653;BME280;11493;43.344;26.226;2023-07-02T11:05:14;98502.19;;;27.04;82.82
22653;BME280;11493;43.344;26.226;2023-07-02T11:07:42;98500.19;;;26.88;81.86
22653;BME280;11493;43.344;26.226;2023-07-02T11:10:10;98508.56;;;26.92;83.17
22653;BME280;11493;43.344;26.226;2023-07-02T11:12:44;98516.84;;;26.99;84.93
22653;BME280;11493;43.344;26.226;2023-07-02T11:15:13;98506.50;;;27.08;82.97
22653;BME280;11493;43.344;26.226;2023-07-02T11:17:40;98502.88;;;27.37;83.79
22653;BME280;11493;43.344;26.226;2023-07-02T11:20:10;98488.31;;;27.38;78.17
22653;BME280;11493;43.344;26.226;2023-07-02T11:22:38;98495.94;;;27.67;77.68
22653;BME280;11493;43.344;26.226;2023-07-02T11:25:16;98501.16;;;27.94;73.60
22653;BME280;11493;43.344;26.226;2023-07-02T11:27:44;98504.44;;;28.18;71.89
22653;BME280;11493;43.344;26.226;2023-07-02T11:30:12;98508.06;;;28.31;69.05
22653;BME280;11493;43.344;26.226;2023-07-02T11:32:52;98503.50;;;28.46;66.97
22653;BME280;11493;43.344;26.226;2023-07-02T11:35:20;98498.72;;;28.68;66.66
22653;BME280;11493;43.344;26.226;2023-07-02T11:37:48;98501.75;;;28.74;66.32
22653;BME280;11493;43.344;26.226;2023-07-02T11:40:20;98510.50;;;28.54;63.86
22653;BME280;11493;43.344;26.226;2023-07-02T11:42:52;98500.19;;;28.60;62.16
22653;BME280;11493;43.344;26.226;2023-07-02T11:45:20;98493.38;;;28.70;62.30
22653;BME280;11493;43.344;26.226;2023-07-02T11:47:50;98492.69;;;28.79;62.73
22653;BME280;11493;43.344;26.226;2023-07-02T11:50:18;98497.25;;;28.98;61.72
22653;BME280;11493;43.344;26.226;2023-07-02T11:52:53;98486.78;;;28.86;59.40
22653;BME280;11493;43.344;26.226;2023-07-02T11:55:21;98486.78;;;28.86;59.02
22653;BME280;11493;43.344;26.226;2023-07-02T11:57:48;98481.34;;;28.79;57.55
22653;BME280;11493;43.344;26.226;2023-07-02T12:00:17;98493.91;;;28.91;56.61
22653;BME280;11493;43.344;26.226;2023-07-02T12:02:44;98487.59;;;28.87;55.99
22653;BME280;11493;43.344;26.226;2023-07-02T12:05:11;98498.25;;;28.83;53.63
22653;BME280;11493;43.344;26.226;2023-07-02T12:07:39;98495.75;;;28.85;51.23
22653;BME280;11493;43.344;26.226;2023-07-02T12:10:07;98491.56;;;28.76;51.82
22653;BME280;11493;43.344;26.226;2023-07-02T12:12:35;98490.19;;;28.81;53.86
22653;BME280;11493;43.344;26.226;2023-07-02T12:15:02;98485.09;;;28.89;53.41
22653;BME280;11493;43.344;26.226;2023-07-02T12:17:29;98476.63;;;28.98;52.09
22653;BME280;11493;43.344;26.226;2023-07-02T12:19:58;98473.28;;;29.12;50.65
22653;BME280;11493;43.344;26.226;2023-07-02T12:22:25;98468.81;;;29.24;51.27
22653;BME280;11493;43.344;26.226;2023-07-02T12:24:52;98468.03;;;29.23;51.10
22653;BME280;11493;43.344;26.226;2023-07-02T12:27:23;98476.13;;;29.12;50.33
22653;BME280;11493;43.344;26.226;2023-07-02T12:29:52;98472.97;;;29.32;50.73
22653;BME280;11493;43.344;26.226;2023-07-02T12:32:19;98473.41;;;29.30;51.21
22653;BME280;11493;43.344;26.226;2023-07-02T12:34:50;98464.59;;;29.28;50.07
22653;BME280;11493;43.344;26.226;2023-07-02T12:37:22;98451.09;;;29.32;50.05
22653;BME280;11493;43.344;26.226;2023-07-02T12:39:49;98459.53;;;29.45;49.50
22653;BME280;11493;43.344;26.226;2023-07-02T12:42:16;98451.88;;;29.55;49.42
22653;BME280;11493;43.344;26.226;2023-07-02T12:44:44;98444.03;;;29.59;48.97
22653;BME280;11493;43.344;26.226;2023-07-02T12:47:23;98460.31;;;29.76;50.40
22653;BME280;11493;43.344;26.226;2023-07-02T12:49:52;98458.31;;;29.86;48.17
22653;BME280;11493;43.344;26.226;2023-07-02T12:52:19;98463.94;;;29.77;48.75
22653;BME280;11493;43.344;26.226;2023-07-02T12:54:46;98464.19;;;29.61;49.23
22653;BME280;11493;43.344;26.226;2023-07-02T12:57:13;98456.88;;;29.51;49.88
22653;BME280;11493;43.344;26.226;2023-07-02T12:59:42;98461.63;;;29.54;50.12